createdAt,value
2022-08-09T00:01:54.107Z,101846.84
2022-08-09T00:04:10.415Z,101846.41
2022-08-09T00:06:23.235Z,101852.94
2022-08-09T00:08:31.993Z,101850.13
2022-08-09T00:10:35.672Z,101847.81
2022-08-09T00:12:38.079Z,101851.34
2022-08-09T00:14:40.616Z,101852.50
2022-08-09T00:16:49.120Z,101856.03
2022-08-09T00:18:53.423Z,101864.06
2022-08-09T00:20:55.808Z,101856.03
2022-08-09T00:22:57.843Z,101856.75
2022-08-09T00:25:12.823Z,101858.84
2022-08-09T00:27:14.947Z,101851.84
2022-08-09T00:30:10.106Z,101855.00
2022-08-09T00:31:58.233Z,101851.38
2022-08-09T00:34:00.883Z,101846.47
2022-08-09T00:36:05.068Z,101849.75
2022-08-09T00:38:07.106Z,101847.66
2022-08-09T00:40:16.978Z,101844.31
2022-08-09T00:44:10.202Z,101844.75
2022-08-09T00:44:41.603Z,101842.19
2022-08-09T00:46:56.641Z,101845.63
2022-08-09T00:49:04.087Z,101842.25
2022-08-09T00:51:11.941Z,101843.06
2022-08-09T00:53:15.018Z,101849.75
2022-08-09T00:55:54.230Z,101844.03
2022-08-09T00:57:39.446Z,101851.53
2022-08-09T00:59:46.997Z,101849.88
2022-08-09T01:01:54.192Z,101851.41
2022-08-09T01:04:28.239Z,101848.97
2022-08-09T01:06:54.468Z,101847.34
2022-08-09T01:09:09.628Z,101848.97
2022-08-09T01:11:25.758Z,101850.84
2022-08-09T01:13:59.341Z,101853.88
2022-08-09T01:16:02.551Z,101851.47
2022-08-09T01:18:08.928Z,101849.38
2022-08-09T01:20:48.563Z,101848.09
2022-08-09T01:24:02.325Z,101850.06
2022-08-09T01:26:42.967Z,101851.13
2022-08-09T01:28:50.440Z,101858.63
2022-08-09T01:30:54.830Z,101859.78
2022-08-09T01:33:00.162Z,101855.34
2022-08-09T01:35:29.039Z,101860.63
2022-08-09T01:38:06.354Z,101865.75
2022-08-09T01:39:51.504Z,101853.72
2022-08-09T01:41:59.928Z,101856.06
2022-08-09T01:44:05.248Z,101850.94
2022-08-09T01:46:07.251Z,101860.94
2022-08-09T01:48:11.393Z,101858.84
2022-08-09T01:50:18.647Z,101862.09
2022-08-09T01:52:32.209Z,101851.47
2022-08-09T01:54:41.154Z,101857.69
2022-08-09T01:56:51.327Z,101860.00
2022-08-09T01:58:53.833Z,101861.53
2022-08-09T02:00:57.364Z,101857.56
2022-08-09T02:02:59.456Z,101867.25
2022-08-09T02:05:15.609Z,101864.44
2022-08-09T02:08:35.826Z,101868.91
2022-08-09T02:10:07.062Z,101866.44
2022-08-09T02:12:13.405Z,101868.31
2022-08-09T02:14:26.317Z,101870.66
2022-08-09T02:16:33.936Z,101868.22
2022-08-09T02:18:54.930Z,101860.25
2022-08-09T02:21:00.232Z,101866.56
2022-08-09T02:23:10.411Z,101857.22
2022-08-09T02:25:29.286Z,101856.06
2022-08-09T02:27:57.720Z,101862.50
2022-08-09T02:29:54.201Z,101859.06
2022-08-09T02:31:58.352Z,101854.41
2022-08-09T02:34:11.089Z,101854.78
2022-08-09T02:36:21.082Z,101855.59
2022-08-09T02:38:30.798Z,101855.81
2022-08-09T02:40:33.009Z,101860.63
2022-08-09T02:42:40.808Z,101864.94
2022-08-09T02:44:48.300Z,101857.56
2022-08-09T02:46:52.295Z,101859.91
2022-08-09T02:48:55.158Z,101865.63
2022-08-09T02:50:59.518Z,101859.22
2022-08-09T02:53:17.385Z,101866.59
2022-08-09T02:55:46.898Z,101855.84
2022-08-09T02:58:00.082Z,101868.78
2022-08-09T03:00:26.112Z,101868.19
2022-08-09T03:02:29.193Z,101868.69
2022-08-09T03:04:32.181Z,101871.56
2022-08-09T03:06:34.339Z,101868.31
2022-08-09T03:08:39.408Z,101874.50
2022-08-09T03:10:44.021Z,101876.47
2022-08-09T03:12:52.859Z,101871.56
2022-08-09T03:14:54.916Z,101873.09
2022-08-09T03:16:58.213Z,101870.66
2022-08-09T03:19:02.034Z,101866.53
2022-08-09T03:21:04.191Z,101871.00
2022-08-09T03:23:14.543Z,101873.34
2022-08-09T03:25:26.087Z,101872.50
2022-08-09T03:27:44.555Z,101864.44
2022-08-09T03:29:57.273Z,101865.63
2022-08-09T03:32:04.576Z,101868.78
2022-08-09T03:34:11.474Z,101870.53
2022-08-09T03:36:17.333Z,101868.44
2022-08-09T03:38:29.115Z,101876.34
2022-08-09T03:40:32.649Z,101871.69
2022-08-09T03:42:35.157Z,101867.34
2022-08-09T03:44:37.242Z,101869.34
2022-08-09T03:46:39.605Z,101871.44
2022-08-09T03:48:51.504Z,101870.66
2022-08-09T03:50:56.950Z,101883.97
2022-08-09T03:53:03.206Z,101880.34
2022-08-09T03:55:07.777Z,101871.56
2022-08-09T03:57:20.258Z,101869.25
2022-08-09T03:59:27.267Z,101872.38
2022-08-09T04:01:30.760Z,101883.72
2022-08-09T04:03:46.271Z,101880.09
2022-08-09T04:05:56.865Z,101880.78
2022-08-09T04:07:58.899Z,101874.13
2022-08-09T04:10:00.936Z,101886.75
2022-08-09T04:12:40.410Z,101885.94
2022-08-09T04:15:00.586Z,101885.13
2022-08-09T04:17:02.194Z,101886.97
2022-08-09T04:19:05.380Z,101888.25
2022-08-09T04:21:13.232Z,101887.91
2022-08-09T04:23:17.315Z,101881.50
2022-08-09T04:25:19.678Z,101893.97
2022-08-09T04:27:22.108Z,101894.47
2022-08-09T04:29:24.319Z,101887.56
2022-08-09T04:31:37.371Z,101891.19
2022-08-09T04:33:47.327Z,101894.34
2022-08-09T04:35:55.481Z,101897.47
2022-08-09T04:37:57.617Z,101897.28
2022-08-09T04:39:59.644Z,101901.00
2022-08-09T04:42:04.364Z,101905.19
2022-08-09T04:44:14.646Z,101908.38
2022-08-09T04:46:19.442Z,101909.53
2022-08-09T04:48:38.934Z,101902.41
2022-08-09T04:50:52.455Z,101906.50
2022-08-09T04:52:54.479Z,101903.22
2022-08-09T04:54:57.455Z,101909.66
2022-08-09T04:57:00.816Z,101909.31
2022-08-09T04:59:15.352Z,101918.63
2022-08-09T05:01:18.901Z,101920.28
2022-08-09T05:03:39.941Z,101914.81
2022-08-09T05:05:51.807Z,101919.25
2022-08-09T05:07:54.929Z,101921.34
2022-08-09T05:09:57.839Z,101920.03
2022-08-09T05:12:03.983Z,101924.50
2022-08-09T05:14:06.732Z,101919.00
2022-08-09T05:16:10.121Z,101917.94
2022-08-09T05:18:50.245Z,101917.28
2022-08-09T05:20:34.309Z,101920.53
2022-08-09T05:23:55.654Z,101921.22
2022-08-09T05:25:02.435Z,101920.66
2022-08-09T05:27:05.100Z,101921.47
2022-08-09T05:29:07.156Z,101928.59
2022-08-09T05:31:32.367Z,101922.06
2022-08-09T05:33:42.594Z,101929.06
2022-08-09T05:35:47.038Z,101933.75
2022-08-09T05:37:52.976Z,101927.81
2022-08-09T05:39:55.071Z,101938.78
2022-08-09T05:42:02.845Z,101927.66
2022-08-09T05:44:06.743Z,101931.56
2022-08-09T05:46:11.467Z,101927.66
2022-08-09T05:48:13.868Z,101930.25
2022-08-09T05:50:30.611Z,101933.63
2022-08-09T05:52:38.919Z,101927.44
2022-08-09T05:54:41.046Z,101931.06
2022-08-09T05:56:54.878Z,101928.59
2022-08-09T05:59:00.603Z,101925.78
2022-08-09T06:01:03.627Z,101937.13
2022-08-09T06:03:10.712Z,101922.72
2022-08-09T06:05:13.131Z,101933.84
2022-08-09T06:07:21.764Z,101927.50
2022-08-09T06:09:54.039Z,101945.75
2022-08-09T06:11:57.407Z,101933.81
2022-08-09T06:13:59.965Z,101937.28
2022-08-09T06:16:05.393Z,101936.69
2022-08-09T06:18:07.545Z,101942.41
2022-08-09T06:20:13.367Z,101936.53
2022-08-09T06:22:28.794Z,101947.59
2022-08-09T06:24:31.162Z,101943.63
2022-08-09T06:26:34.445Z,101949.81
2022-08-09T06:28:36.804Z,101941.16
2022-08-09T06:30:39.265Z,101954.94
2022-08-09T06:32:59.388Z,101948.50
2022-08-09T06:35:08.553Z,101942.28
2022-08-09T06:37:10.743Z,101951.63
2022-08-09T06:39:13.624Z,101953.38
2022-08-09T06:41:18.890Z,101962.06
2022-08-09T06:43:22.062Z,101958.53
2022-08-09T06:46:08.101Z,101961.72
2022-08-09T06:47:46.794Z,101971.44
2022-08-09T06:50:14.884Z,101962.81
2022-08-09T06:52:15.674Z,101959.78
2022-08-09T06:54:18.124Z,101962.75
2022-08-09T06:56:30.865Z,101956.50
2022-08-09T07:00:47.358Z,101961.41
2022-08-09T07:00:58.573Z,101955.88
2022-08-09T07:03:01.988Z,101970.22
2022-08-09T07:05:08.626Z,101968.16
2022-08-09T07:07:11.852Z,101971.88
2022-08-09T07:09:53.067Z,101971.31
2022-08-09T07:11:45.682Z,101967.13
2022-08-09T07:14:05.374Z,101975.41
2022-08-09T07:16:42.430Z,101969.91
2022-08-09T07:18:31.400Z,101981.66
2022-08-09T07:20:33.995Z,101974.00
2022-08-09T07:22:47.418Z,101975.91
2022-08-09T07:24:54.730Z,101981.75
2022-08-09T07:26:57.282Z,101967.13
2022-08-09T07:29:08.823Z,101978.25
2022-08-09T07:31:13.929Z,101981.72
2022-08-09T07:33:18.027Z,101975.75
2022-08-09T07:35:20.044Z,101979.69
2022-08-09T07:37:24.525Z,101981.00
2022-08-09T07:39:41.344Z,101979.16
2022-08-09T07:41:44.946Z,101984.06
2022-08-09T07:43:50.088Z,101970.41
2022-08-09T07:46:02.083Z,101978.25
2022-08-09T07:48:05.602Z,101982.06
2022-08-09T07:50:09.311Z,101976.25
2022-08-09T07:52:17.284Z,101981.28
2022-08-09T07:54:27.879Z,101977.53
2022-08-09T07:56:33.365Z,101983.22
2022-08-09T07:58:35.654Z,101976.63
2022-08-09T08:00:38.007Z,101979.13
2022-08-09T08:03:00.632Z,101982.72
2022-08-09T08:05:11.526Z,101979.59
2022-08-09T08:08:44.449Z,101978.84
2022-08-09T08:09:51.737Z,101982.66
2022-08-09T08:12:10.671Z,101983.63
2022-08-09T08:14:21.042Z,101970.47
2022-08-09T08:16:31.435Z,101977.94
2022-08-09T08:18:34.342Z,101978.03
2022-08-09T08:20:39.073Z,101980.94
2022-08-09T08:22:45.035Z,101987.13
2022-08-09T08:24:55.985Z,101980.81
2022-08-09T08:26:59.871Z,101987.88
2022-08-09T08:29:01.881Z,101987.16
2022-08-09T08:31:14.452Z,101991.72
2022-08-09T08:33:23.647Z,101992.59
2022-08-09T08:35:37.176Z,101983.88
2022-08-09T08:37:59.466Z,101988.94
2022-08-09T08:40:08.243Z,101993.06
2022-08-09T08:42:10.308Z,101993.56
2022-08-09T08:44:15.062Z,101998.84
2022-08-09T08:46:32.501Z,101992.00
2022-08-09T08:48:37.443Z,101990.84
2022-08-09T08:50:39.772Z,101994.19
2022-08-09T08:52:57.431Z,101994.88
2022-08-09T08:55:03.975Z,101995.34
2022-08-09T08:57:11.607Z,101980.44
2022-08-09T08:59:19.004Z,101985.34
2022-08-09T09:01:25.007Z,101984.16
2022-08-09T09:03:38.264Z,101982.53
2022-08-09T09:05:59.636Z,101989.13
2022-08-09T09:08:03.108Z,101999.63
2022-08-09T09:10:09.121Z,101992.66
2022-08-09T09:12:16.657Z,101995.88
2022-08-09T09:14:26.308Z,101993.91
2022-08-09T09:16:32.380Z,101998.03
2022-08-09T09:18:36.038Z,102001.75
2022-08-09T09:20:38.821Z,102000.31
2022-08-09T09:22:54.535Z,101997.09
2022-08-09T09:26:02.485Z,101994.28
2022-08-09T09:28:03.197Z,101997.56
2022-08-09T09:30:14.286Z,101993.16
2022-08-09T09:32:15.551Z,101990.78
2022-08-09T09:34:18.742Z,101999.72
2022-08-09T09:36:21.961Z,101996.47
2022-08-09T09:38:36.319Z,102004.97
2022-08-09T09:40:46.293Z,101998.50
2022-08-09T09:42:57.634Z,101994.84
2022-08-09T09:45:03.241Z,101991.59
2022-08-09T09:47:10.688Z,102000.50
2022-08-09T09:49:14.061Z,101996.09
2022-08-09T09:51:38.165Z,101994.03
2022-08-09T09:53:57.532Z,102000.94
2022-08-09T09:56:04.266Z,102007.84
2022-08-09T09:58:17.124Z,101998.50
2022-08-09T10:00:26.677Z,102003.38
2022-08-09T10:02:29.522Z,101998.09
2022-08-09T10:04:31.906Z,101995.28
2022-08-09T10:06:43.461Z,101993.22
2022-08-09T10:08:55.144Z,101990.41
2022-08-09T10:10:59.716Z,101982.25
2022-08-09T10:13:01.754Z,101988.25
2022-08-09T10:15:17.620Z,101986.13
2022-08-09T10:17:50.523Z,101981.88
2022-08-09T10:19:58.718Z,101977.81
2022-08-09T10:22:01.117Z,101981.25
2022-08-09T10:24:05.021Z,101980.41
2022-08-09T10:26:11.001Z,101983.78
2022-08-09T10:28:13.837Z,101980.00
2022-08-09T10:32:42.361Z,101973.22
2022-08-09T10:34:46.327Z,101965.97
2022-08-09T10:36:54.362Z,101970.25
2022-08-09T10:39:00.027Z,101962.50
2022-08-09T10:41:03.211Z,101960.59
2022-08-09T10:43:08.222Z,101959.75
2022-08-09T10:45:16.048Z,101959.91
2022-08-09T10:48:19.156Z,101953.72
2022-08-09T10:50:32.975Z,101958.50
2022-08-09T10:53:04.350Z,101962.25
2022-08-09T10:55:23.962Z,101958.69
2022-08-09T10:57:34.257Z,101947.66
2022-08-09T10:59:55.423Z,101947.06
2022-08-09T11:03:15.768Z,101954.28
2022-08-09T11:04:30.944Z,101944.78
2022-08-09T11:06:37.285Z,101941.13
2022-08-09T11:08:47.314Z,101953.09
2022-08-09T11:10:54.768Z,101946.81
2022-08-09T11:13:49.257Z,101948.13
2022-08-09T11:15:51.008Z,101940.81
2022-08-09T11:18:03.063Z,101937.09
2022-08-09T11:20:12.822Z,101937.34
2022-08-09T11:22:47.090Z,101935.81
2022-08-09T11:25:08.252Z,101937.63
2022-08-09T11:28:05.325Z,101938.88
2022-08-09T11:30:05.892Z,101933.47
2022-08-09T11:33:07.311Z,101934.56
2022-08-09T11:35:35.274Z,101940.00
2022-08-09T11:37:51.571Z,101934.13
2022-08-09T11:40:06.541Z,101941.03
2022-08-09T11:42:09.515Z,101937.75
2022-08-09T11:44:17.325Z,101935.53
2022-08-09T11:46:26.707Z,101940.34
2022-08-09T11:48:57.307Z,101944.06
2022-08-09T11:52:53.989Z,101936.78
2022-08-09T11:54:01.416Z,101937.47
2022-08-09T11:55:53.241Z,101935.91
2022-08-09T11:58:11.620Z,101931.00
2022-08-09T12:00:16.860Z,101917.28
2022-08-09T12:02:37.564Z,101923.06
2022-08-09T12:04:42.156Z,101916.47
2022-08-09T12:06:55.728Z,101910.09
2022-08-09T12:08:58.451Z,101904.25
2022-08-09T12:11:03.840Z,101916.97
2022-08-09T12:14:08.011Z,101922.72
2022-08-09T12:15:48.885Z,101918.34
2022-08-09T12:17:52.235Z,101915.69
2022-08-09T12:19:59.702Z,101910.97
2022-08-09T12:22:04.688Z,101902.13
2022-08-09T12:24:10.167Z,101910.88
2022-08-09T12:26:12.808Z,101910.44
2022-08-09T12:29:09.877Z,101904.91
2022-08-09T12:30:48.922Z,101909.94
2022-08-09T12:33:01.480Z,101906.19
2022-08-09T12:35:05.644Z,101905.22
2022-08-09T12:37:24.216Z,101900.59
2022-08-09T12:39:31.991Z,101905.69
2022-08-09T12:41:40.414Z,101893.25
2022-08-09T12:44:06.944Z,101903.00
2022-08-09T12:46:04.850Z,101892.16
2022-08-09T12:48:28.080Z,101903.81
2022-08-09T12:50:34.355Z,101900.78
2022-08-09T12:53:07.814Z,101902.34
2022-08-09T12:56:11.975Z,101895.41
2022-08-09T12:57:46.302Z,101896.47
2022-08-09T13:00:02.095Z,101897.97
2022-08-09T13:02:09.312Z,101891.66
2022-08-09T13:04:33.311Z,101892.53
2022-08-09T13:06:44.100Z,101901.53
2022-08-09T13:09:02.686Z,101893.53
2022-08-09T13:11:22.677Z,101890.94
2022-08-09T13:14:42.412Z,101887.38
2022-08-09T13:16:11.040Z,101891.03
2022-08-09T13:18:17.410Z,101888.56
2022-08-09T13:20:37.623Z,101901.19
2022-08-09T13:23:04.800Z,101895.59
2022-08-09T13:25:18.397Z,101901.53
2022-08-09T13:27:40.018Z,101891.53
2022-08-09T13:30:51.226Z,101891.25
2022-08-09T13:32:51.861Z,101897.66
2022-08-09T13:34:53.957Z,101907.03
2022-08-09T13:37:02.492Z,101895.97
2022-08-09T13:41:56.383Z,101900.34
2022-08-09T13:41:58.410Z,101901.00
2022-08-09T13:43:48.994Z,101904.25
2022-08-09T13:46:43.661Z,101896.19
2022-08-09T13:48:14.679Z,101896.41
2022-08-09T13:50:30.268Z,101896.91
2022-08-09T13:52:34.722Z,101895.50
2022-08-09T13:54:41.679Z,101898.56
2022-08-09T13:56:46.997Z,101901.06
2022-08-09T13:58:49.243Z,101900.31
2022-08-09T14:00:52.878Z,101895.84
2022-08-09T14:03:16.799Z,101903.97
2022-08-09T14:05:58.427Z,101900.34
2022-08-09T14:07:41.013Z,101899.06
2022-08-09T14:09:43.439Z,101902.72
2022-08-09T14:11:47.808Z,101905.91
2022-08-09T14:14:22.680Z,101902.22
2022-08-09T14:16:16.139Z,101899.69
2022-08-09T14:18:19.928Z,101906.03
2022-08-09T14:20:32.061Z,101906.00
2022-08-09T14:22:34.673Z,101909.50
2022-08-09T14:24:36.922Z,101909.78
2022-08-09T14:26:51.302Z,101914.56
2022-08-09T14:28:53.894Z,101916.19
2022-08-09T14:30:55.887Z,101916.91
2022-08-09T14:32:58.045Z,101915.16
2022-08-09T14:35:00.131Z,101922.84
2022-08-09T14:37:07.560Z,101927.94
2022-08-09T14:39:10.228Z,101937.66
2022-08-09T14:41:23.918Z,101944.06
2022-08-09T14:43:47.409Z,101937.97
2022-08-09T14:46:55.763Z,101954.16
2022-08-09T14:48:17.371Z,101940.41
2022-08-09T14:50:20.498Z,101947.16
2022-08-09T14:52:22.511Z,101960.22
2022-08-09T14:54:28.172Z,101949.31
2022-08-09T14:56:30.570Z,101960.19
2022-08-09T14:58:32.845Z,101961.06
2022-08-09T15:00:36.731Z,101958.31
2022-08-09T15:02:39.047Z,101966.25
2022-08-09T15:04:42.230Z,101959.50
2022-08-09T15:06:49.371Z,101964.28
2022-08-09T15:08:56.370Z,101967.47
2022-08-09T15:11:00.692Z,101965.59
2022-08-09T15:13:04.805Z,101964.94
2022-08-09T15:15:08.605Z,101943.28
2022-08-09T15:17:11.239Z,101951.22
2022-08-09T15:19:16.134Z,101951.81
2022-08-09T15:21:57.107Z,101946.69
2022-08-09T15:24:01.044Z,101938.16
2022-08-09T15:26:04.920Z,101936.47
2022-08-09T15:28:26.100Z,101940.72
2022-08-09T15:30:48.593Z,101928.47
2022-08-09T15:32:52.641Z,101939.50
2022-08-09T15:34:55.455Z,101936.91
2022-08-09T15:36:58.607Z,101935.06
2022-08-09T15:39:00.907Z,101940.22
2022-08-09T15:41:09.738Z,101934.53
2022-08-09T15:43:13.254Z,101928.28
2022-08-09T15:45:16.794Z,101923.13
2022-08-09T15:47:47.073Z,101927.44
2022-08-09T15:50:04.034Z,101926.78
2022-08-09T15:52:08.019Z,101934.22
2022-08-09T15:54:28.588Z,101932.97
2022-08-09T15:56:35.801Z,101932.19
2022-08-09T15:58:37.800Z,101930.88
2022-08-09T16:00:41.472Z,101929.91
2022-08-09T16:02:53.407Z,101931.38
2022-08-09T16:04:56.269Z,101914.34
2022-08-09T16:06:58.407Z,101924.97
2022-08-09T16:09:05.674Z,101932.66
2022-08-09T16:11:08.434Z,101928.25
2022-08-09T16:13:18.725Z,101931.13
2022-08-09T16:16:12.230Z,101926.69
2022-08-09T16:17:54.572Z,101926.75
2022-08-09T16:20:05.015Z,101941.44
2022-08-09T16:22:15.830Z,101926.91
2022-08-09T16:24:29.872Z,101931.03
2022-08-09T16:26:36.612Z,101922.22
2022-08-09T16:28:38.675Z,101919.91
2022-08-09T16:30:44.380Z,101915.84
2022-08-09T16:33:05.798Z,101918.25
2022-08-09T16:35:11.226Z,101909.72
2022-08-09T16:37:55.413Z,101913.97
2022-08-09T16:39:54.552Z,101906.22
2022-08-09T16:42:05.594Z,101909.63
2022-08-09T16:44:08.992Z,101908.53
2022-08-09T16:46:12.515Z,101909.84
2022-08-09T16:48:38.849Z,101903.34
2022-08-09T16:50:38.574Z,101907.81
2022-08-09T16:52:41.128Z,101907.41
2022-08-09T16:54:45.148Z,101910.28
2022-08-09T16:56:49.119Z,101904.66
2022-08-09T16:58:51.652Z,101909.56
2022-08-09T17:00:54.858Z,101906.72
2022-08-09T17:02:57.487Z,101906.31
2022-08-09T17:05:00.160Z,101914.41
2022-08-09T17:08:41.268Z,101914.78
2022-08-09T17:09:45.440Z,101908.25
2022-08-09T17:11:48.080Z,101914.38
2022-08-09T17:14:01.239Z,101917.16
2022-08-09T17:16:04.674Z,101913.84
2022-08-09T17:18:07.163Z,101919.91
2022-08-09T17:20:32.632Z,101922.75
2022-08-09T17:22:50.571Z,101921.13
2022-08-09T17:24:55.576Z,101923.16
2022-08-09T17:26:58.172Z,101924.41
2022-08-09T17:29:00.327Z,101931.66
2022-08-09T17:31:02.404Z,101929.59
2022-08-09T17:33:05.558Z,101931.72
2022-08-09T17:35:24.262Z,101930.44
2022-08-09T17:37:26.344Z,101933.69
2022-08-09T17:39:53.049Z,101924.81
2022-08-09T17:41:53.977Z,101928.03
2022-08-09T17:44:39.238Z,101931.28
2022-08-09T17:46:17.963Z,101935.25
2022-08-09T17:48:20.055Z,101936.78
2022-08-09T17:50:37.109Z,101930.13
2022-08-09T17:52:39.624Z,101942.59
2022-08-09T17:54:41.627Z,101935.22
2022-08-09T17:56:44.067Z,101933.09
2022-08-09T17:58:47.167Z,101936.00
2022-08-09T18:00:49.294Z,101942.88
2022-08-09T18:02:58.472Z,101942.88
2022-08-09T18:05:00.865Z,101945.63
2022-08-09T18:07:04.469Z,101946.75
2022-08-09T18:09:07.035Z,101949.19
2022-08-09T18:11:09.097Z,101951.97
2022-08-09T18:13:39.006Z,101954.81
2022-08-09T18:15:59.993Z,101956.25
2022-08-09T18:18:08.147Z,101953.63
2022-08-09T18:20:55.557Z,101952.34
2022-08-09T18:22:33.962Z,101953.75
2022-08-09T18:24:36.392Z,101957.78
2022-08-09T18:26:46.789Z,101955.63
2022-08-09T18:30:39.328Z,101960.91
2022-08-09T18:31:12.036Z,101957.34
2022-08-09T18:33:15.195Z,101962.25
2022-08-09T18:35:17.341Z,101960.88
2022-08-09T18:37:47.641Z,101963.28
2022-08-09T18:39:48.286Z,101973.97
2022-08-09T18:41:52.903Z,101975.59
2022-08-09T18:43:58.102Z,101979.13
2022-08-09T18:46:47.709Z,101975.03
2022-08-09T18:48:30.151Z,101976.28
2022-08-09T18:50:34.660Z,101974.84
2022-08-09T18:52:37.001Z,101979.19
2022-08-09T18:54:49.498Z,101974.63
2022-08-09T18:56:55.288Z,101975.59
2022-08-09T18:58:57.633Z,101977.66
2022-08-09T19:01:03.055Z,101973.06
2022-08-09T19:03:05.073Z,101975.66
2022-08-09T19:05:19.681Z,101975.72
2022-08-09T19:07:26.666Z,101979.25
2022-08-09T19:10:13.064Z,101980.00
2022-08-09T19:11:50.781Z,101983.03
2022-08-09T19:13:52.918Z,101976.91
2022-08-09T19:15:59.088Z,101988.31
2022-08-09T19:18:02.080Z,101983.84
2022-08-09T19:20:08.329Z,101984.72
2022-08-09T19:22:12.085Z,101987.91
2022-08-09T19:24:36.495Z,101976.75
2022-08-09T19:26:40.798Z,101982.31
2022-08-09T19:28:48.794Z,101984.41
2022-08-09T19:30:51.152Z,101985.63
2022-08-09T19:32:53.585Z,101987.53
2022-08-09T19:35:00.005Z,101984.81
2022-08-09T19:37:03.069Z,101983.72
2022-08-09T19:39:05.537Z,101985.63
2022-08-09T19:41:08.521Z,101985.97
2022-08-09T19:43:16.478Z,101981.09
2022-08-09T19:45:40.154Z,101986.28
2022-08-09T19:47:44.943Z,101990.38
2022-08-09T19:50:08.286Z,101996.06
2022-08-09T19:52:10.139Z,101998.00
2022-08-09T19:54:14.629Z,101995.06
2022-08-09T19:56:16.688Z,102001.53
2022-08-09T19:58:30.868Z,101998.63
2022-08-09T20:00:34.663Z,101999.66
2022-08-09T20:04:26.308Z,102006.34
2022-08-09T20:04:58.918Z,102011.19
2022-08-09T20:07:01.152Z,102002.28
2022-08-09T20:09:06.152Z,102011.13
2022-08-09T20:11:08.419Z,102009.03
2022-08-09T20:13:10.503Z,102006.47
2022-08-09T20:16:37.555Z,102007.41
2022-08-09T20:17:48.555Z,102014.84
2022-08-09T20:19:55.997Z,102005.06
2022-08-09T20:22:00.205Z,102008.50
2022-08-09T20:24:02.953Z,102018.50
2022-08-09T20:26:06.858Z,102017.69
2022-08-09T20:28:09.098Z,102007.97
2022-08-09T20:30:18.069Z,102018.69
2022-08-09T20:32:33.119Z,102017.69
2022-08-09T20:34:47.561Z,102030.16
2022-08-09T20:36:51.178Z,102020.09
2022-08-09T20:39:28.365Z,102022.25
2022-08-09T20:41:15.220Z,102010.00
2022-08-09T20:43:18.747Z,102020.31
2022-08-09T20:45:59.138Z,102018.13
2022-08-09T20:47:48.943Z,102013.31
2022-08-09T20:49:51.003Z,102007.50
2022-08-09T20:51:53.510Z,102022.84
2022-08-09T20:53:56.435Z,102015.25
2022-08-09T20:56:00.795Z,102019.25
2022-08-09T20:58:05.670Z,102019.25
2022-08-09T21:00:31.869Z,102005.34
2022-08-09T21:02:34.949Z,102014.84
2022-08-09T21:05:54.686Z,102020.63
2022-08-09T21:06:59.252Z,102020.16
2022-08-09T21:09:24.775Z,102018.63
2022-08-09T21:13:59.675Z,102018.88
2022-08-09T21:16:02.400Z,102031.94
2022-08-09T21:18:25.302Z,102032.22
2022-08-09T21:20:30.034Z,102026.75
2022-08-09T21:22:38.429Z,102025.81
2022-08-09T21:25:00.499Z,102023.25
2022-08-09T21:27:10.205Z,102035.78
2022-08-09T21:29:25.358Z,102030.75
2022-08-09T21:31:48.197Z,102037.78
2022-08-09T21:33:50.831Z,102036.97
2022-08-09T21:35:54.002Z,102041.03
2022-08-09T21:37:59.580Z,102042.31
2022-08-09T21:40:02.756Z,102038.47
2022-08-09T21:42:11.197Z,102041.06
2022-08-09T21:44:15.225Z,102036.00
2022-08-09T21:46:35.200Z,102042.34
2022-08-09T21:48:38.778Z,102037.31
2022-08-09T21:50:49.693Z,102039.28
2022-08-09T21:52:54.310Z,102038.59
2022-08-09T21:55:02.797Z,102032.75
2022-08-09T21:57:06.172Z,102039.03
2022-08-09T21:59:27.606Z,102042.09
2022-08-09T22:02:00.735Z,102044.66
2022-08-09T22:04:03.768Z,102041.84
2022-08-09T22:06:05.920Z,102042.66
2022-08-09T22:08:12.915Z,102036.47
2022-08-09T22:10:22.064Z,102041.13
2022-08-09T22:12:30.830Z,102043.25
2022-08-09T22:14:33.963Z,102044.88
2022-08-09T22:16:37.411Z,102041.25
2022-08-09T22:18:43.940Z,102038.69
2022-08-09T22:20:55.835Z,102038.88
2022-08-09T22:22:57.872Z,102036.66
2022-08-09T22:26:06.309Z,102040.16
2022-08-09T22:27:21.846Z,102044.59
2022-08-09T22:29:32.371Z,102037.84
2022-08-09T22:31:56.720Z,102043.44
2022-08-09T22:33:59.680Z,102035.72
2022-08-09T22:36:03.724Z,102040.38
2022-08-09T22:38:07.589Z,102041.53
2022-08-09T22:40:18.176Z,102033.63
2022-08-09T22:42:23.441Z,102030.19
2022-08-09T22:44:32.778Z,102039.31
2022-08-09T22:48:12.671Z,102040.00
2022-08-09T22:49:01.814Z,102036.84
2022-08-09T22:51:17.880Z,102040.00
2022-08-09T22:53:25.989Z,102044.88
2022-08-09T22:56:30.040Z,102049.06
2022-08-09T22:58:08.268Z,102044.16
2022-08-09T23:00:12.024Z,102039.25
2022-08-09T23:02:15.843Z,102038.84
2022-08-09T23:04:22.213Z,102043.06
2022-08-09T23:06:47.617Z,102041.63
2022-08-09T23:08:50.743Z,102038.38
2022-08-09T23:10:52.723Z,102040.56
2022-08-09T23:12:54.711Z,102035.16
2022-08-09T23:14:56.716Z,102030.06
2022-08-09T23:16:58.777Z,102031.91
2022-08-09T23:19:01.038Z,102036.69
2022-08-09T23:21:03.029Z,102035.16
2022-08-09T23:23:05.763Z,102033.38
2022-08-09T23:25:08.082Z,102036.16
2022-08-09T23:27:10.117Z,102041.91
2022-08-09T23:29:13.726Z,102038.59
2022-08-09T23:31:15.894Z,102041.25
2022-08-09T23:33:17.862Z,102039.66
2022-08-09T23:35:19.857Z,102036.94
2022-08-09T23:37:22.915Z,102036.47
2022-08-09T23:39:27.693Z,102041.44
2022-08-09T23:41:30.029Z,102047.25
2022-08-09T23:43:32.133Z,102048.94
2022-08-09T23:45:37.206Z,102051.56
2022-08-09T23:47:40.558Z,102045.34
2022-08-09T23:49:42.938Z,102041.44
2022-08-09T23:51:44.937Z,102043.53
2022-08-09T23:53:49.561Z,102049.81
2022-08-09T23:55:54.498Z,102039.00
2022-08-09T23:58:08.560Z,102044.13
